createdAt,value
2022-10-09T00:00:57.436Z,944.96
2022-10-09T00:01:57.655Z,944.94
2022-10-09T00:02:58.060Z,944.9
2022-10-09T00:03:58.255Z,944.93
2022-10-09T00:04:58.517Z,944.89
2022-10-09T00:05:59.038Z,944.89
2022-10-09T00:06:59.250Z,944.88
2022-10-09T00:07:59.443Z,944.92
2022-10-09T00:08:59.760Z,944.88
2022-10-09T00:10:00.239Z,944.86
2022-10-09T00:11:00.440Z,944.86
2022-10-09T00:12:01.136Z,944.81
2022-10-09T00:13:01.340Z,944.87
2022-10-09T00:14:01.683Z,944.85
2022-10-09T00:15:02.680Z,944.89
2022-10-09T00:16:03.610Z,944.85
2022-10-09T00:17:04.154Z,944.85
2022-10-09T00:18:04.298Z,944.82
2022-10-09T00:19:04.724Z,944.8
2022-10-09T00:20:04.915Z,944.8
2022-10-09T00:21:05.552Z,944.78
2022-10-09T00:22:05.780Z,944.77
2022-10-09T00:23:06.419Z,944.76
2022-10-09T00:24:06.788Z,944.79
2022-10-09T00:25:07.263Z,944.75
2022-10-09T00:26:08.188Z,944.8
2022-10-09T00:27:08.515Z,944.76
2022-10-09T00:28:09.458Z,944.74
2022-10-09T00:29:09.767Z,944.69
2022-10-09T00:30:09.971Z,944.69
2022-10-09T00:31:10.409Z,944.65
2022-10-09T00:32:10.497Z,944.66
2022-10-09T00:33:10.711Z,944.65
2022-10-09T00:34:11.203Z,944.63
2022-10-09T00:35:11.396Z,944.63
2022-10-09T00:36:12.282Z,944.57
2022-10-09T00:37:13.230Z,944.59
2022-10-09T00:38:14.144Z,944.58
2022-10-09T00:39:15.289Z,944.6
2022-10-09T00:40:16.191Z,944.57
2022-10-09T00:41:16.832Z,944.56
2022-10-09T00:42:17.433Z,944.53
2022-10-09T00:43:18.331Z,944.52
2022-10-09T00:44:18.518Z,944.52
2022-10-09T00:45:18.730Z,944.48
2022-10-09T00:46:19.044Z,944.49
2022-10-09T00:47:19.913Z,944.49
2022-10-09T00:48:20.524Z,944.49
2022-10-09T00:49:21.537Z,944.44
2022-10-09T00:50:22.151Z,944.47
2022-10-09T00:51:22.764Z,944.46
2022-10-09T00:52:23.199Z,944.46
2022-10-09T00:53:23.842Z,944.43
2022-10-09T00:54:24.073Z,944.45
2022-10-09T00:55:24.696Z,944.41
2022-10-09T00:56:25.604Z,944.38
2022-10-09T00:57:26.496Z,944.38
2022-10-09T00:58:27.394Z,944.34
2022-10-09T00:59:27.979Z,944.34
2022-10-09T01:00:28.890Z,944.33
2022-10-09T01:01:29.132Z,944.37
2022-10-09T01:02:29.742Z,944.33
2022-10-09T01:03:30.029Z,944.31
2022-10-09T01:04:30.677Z,944.26
2022-10-09T01:05:30.886Z,944.26
2022-10-09T01:06:31.798Z,944.24
2022-10-09T01:07:32.313Z,944.21
2022-10-09T01:08:32.948Z,944.19
2022-10-09T01:09:34.001Z,944.2
2022-10-09T01:10:34.904Z,944.2
2022-10-09T01:11:35.403Z,944.17
2022-10-09T01:12:35.596Z,944.11
2022-10-09T01:13:35.957Z,944.11
2022-10-09T01:14:36.160Z,944.1
2022-10-09T01:15:36.677Z,944.12
2022-10-09T01:16:37.140Z,944.09
2022-10-09T01:17:37.483Z,944.09
2022-10-09T01:18:37.689Z,944.11
2022-10-09T01:19:38.675Z,944.12
2022-10-09T01:20:39.267Z,944.08
2022-10-09T01:21:39.587Z,944.07
2022-10-09T01:22:40.111Z,944.04
2022-10-09T01:23:40.467Z,944.05
2022-10-09T01:24:41.406Z,944.02
2022-10-09T01:25:42.310Z,944.04
2022-10-09T01:26:43.227Z,944.06
2022-10-09T01:27:44.163Z,944
2022-10-09T01:28:45.130Z,944.05
2022-10-09T01:29:45.466Z,944.03
2022-10-09T01:30:45.696Z,944.02
2022-10-09T01:31:45.917Z,944.01
2022-10-09T01:32:47.132Z,943.98
2022-10-09T01:33:47.612Z,943.99
2022-10-09T01:34:48.529Z,943.95
2022-10-09T01:35:48.753Z,943.91
2022-10-09T01:36:48.960Z,943.93
2022-10-09T01:37:49.798Z,943.92
2022-10-09T01:38:50.712Z,943.9
2022-10-09T01:39:51.723Z,943.88
2022-10-09T01:40:51.905Z,943.89
2022-10-09T01:41:52.799Z,943.9
2022-10-09T01:42:53.291Z,943.89
2022-10-09T01:43:53.920Z,943.86
2022-10-09T01:44:54.123Z,943.86
2022-10-09T01:45:55.048Z,943.86
2022-10-09T01:46:55.425Z,943.87
2022-10-09T01:47:56.350Z,943.88
2022-10-09T01:48:57.388Z,943.82
2022-10-09T01:49:58.404Z,943.82
2022-10-09T01:50:58.751Z,943.81
2022-10-09T01:51:59.727Z,943.8
2022-10-09T01:53:00.826Z,943.75
2022-10-09T01:54:01.763Z,943.76
2022-10-09T01:55:01.991Z,943.75
2022-10-09T01:56:02.895Z,943.75
2022-10-09T01:57:03.533Z,943.69
2022-10-09T01:58:03.722Z,943.69
2022-10-09T01:59:04.642Z,943.68
2022-10-09T02:00:05.356Z,943.63
2022-10-09T02:01:06.299Z,943.66
2022-10-09T02:02:07.450Z,943.64
2022-10-09T02:03:07.622Z,943.63
2022-10-09T02:04:08.514Z,943.66
2022-10-09T02:05:09.131Z,943.64
2022-10-09T02:06:10.044Z,943.62
2022-10-09T02:07:10.260Z,943.56
2022-10-09T02:08:10.618Z,943.58
2022-10-09T02:09:10.952Z,943.59
2022-10-09T02:10:11.255Z,943.62
2022-10-09T02:11:11.431Z,943.57
2022-10-09T02:12:11.750Z,943.55
2022-10-09T02:13:12.060Z,943.54
2022-10-09T02:14:12.255Z,943.54
2022-10-09T02:15:12.484Z,943.54
2022-10-09T02:16:12.908Z,943.53
2022-10-09T02:17:13.739Z,943.51
2022-10-09T02:18:13.926Z,943.52
2022-10-09T02:19:14.838Z,943.52
2022-10-09T02:20:15.248Z,943.51
2022-10-09T02:21:15.462Z,943.5
2022-10-09T02:22:15.648Z,943.48
2022-10-09T02:23:15.866Z,943.5
2022-10-09T02:24:16.782Z,943.5
2022-10-09T02:25:16.993Z,943.49
2022-10-09T02:26:17.914Z,943.48
2022-10-09T02:27:18.400Z,943.45
2022-10-09T02:28:19.350Z,943.48
2022-10-09T02:29:20.373Z,943.5
2022-10-09T02:30:21.129Z,943.46
2022-10-09T02:31:21.418Z,943.44
2022-10-09T02:32:21.604Z,943.48
2022-10-09T02:33:22.508Z,943.45
2022-10-09T02:34:23.142Z,943.42
2022-10-09T02:35:23.331Z,943.42
2022-10-09T02:36:23.923Z,943.43
2022-10-09T02:37:24.934Z,943.41
2022-10-09T02:38:25.579Z,943.4
2022-10-09T02:39:26.515Z,943.42
2022-10-09T02:40:26.975Z,943.39
2022-10-09T02:41:27.878Z,943.35
2022-10-09T02:42:28.791Z,943.36
2022-10-09T02:43:29.405Z,943.34
2022-10-09T02:44:29.619Z,943.35
2022-10-09T02:45:30.582Z,943.29
2022-10-09T02:46:30.853Z,943.31
2022-10-09T02:47:31.300Z,943.31
2022-10-09T02:48:32.238Z,943.31
2022-10-09T02:49:32.446Z,943.3
2022-10-09T02:50:32.777Z,943.3
2022-10-09T02:51:32.982Z,943.27
2022-10-09T02:52:33.875Z,943.25
2022-10-09T02:53:34.541Z,943.26
2022-10-09T02:54:34.756Z,943.26
2022-10-09T02:55:35.394Z,943.25
2022-10-09T02:56:38.886Z,943.25
2022-10-09T02:57:37.067Z,943.27
2022-10-09T02:58:37.485Z,943.25
2022-10-09T02:59:38.100Z,943.23
2022-10-09T03:00:38.378Z,943.23
2022-10-09T03:01:38.745Z,943.24
2022-10-09T03:02:39.143Z,943.22
2022-10-09T03:03:39.762Z,943.21
2022-10-09T03:04:40.397Z,943.18
2022-10-09T03:05:41.328Z,943.19
2022-10-09T03:06:41.944Z,943.17
2022-10-09T03:07:42.860Z,943.17
2022-10-09T03:08:43.774Z,943.16
2022-10-09T03:09:43.968Z,943.12
2022-10-09T03:10:45.086Z,943.11
2022-10-09T03:11:45.992Z,943.12
2022-10-09T03:12:46.864Z,943.11
2022-10-09T03:13:46.940Z,943.13
2022-10-09T03:14:47.424Z,943.13
2022-10-09T03:15:48.408Z,943.14
2022-10-09T03:16:49.032Z,943.11
2022-10-09T03:17:49.655Z,943.14
2022-10-09T03:18:50.573Z,943.16
2022-10-09T03:19:50.781Z,943.13
2022-10-09T03:20:51.477Z,943.11
2022-10-09T03:21:51.668Z,943.13
2022-10-09T03:22:52.083Z,943.15
2022-10-09T03:23:52.324Z,943.11
2022-10-09T03:24:52.536Z,943.13
2022-10-09T03:25:53.208Z,943.17
2022-10-09T03:26:53.826Z,943.12
2022-10-09T03:27:54.087Z,943.12
2022-10-09T03:28:54.361Z,943.11
2022-10-09T03:29:54.988Z,943.16
2022-10-09T03:30:56.076Z,943.12
2022-10-09T03:31:57.002Z,943.12
2022-10-09T03:32:57.809Z,943.11
2022-10-09T03:33:57.998Z,943.13
2022-10-09T03:34:58.616Z,943.1
2022-10-09T03:35:59.238Z,943.11
2022-10-09T03:37:00.152Z,943.11
2022-10-09T03:38:00.799Z,943.11
2022-10-09T03:39:01.009Z,943.07
2022-10-09T03:40:01.922Z,943.07
2022-10-09T03:41:02.245Z,943.07
2022-10-09T03:42:02.867Z,943.04
2022-10-09T03:43:03.800Z,943.06
2022-10-09T03:44:04.009Z,943.07
2022-10-09T03:45:04.198Z,943.08
2022-10-09T03:46:04.707Z,943.06
2022-10-09T03:47:04.889Z,943.08
2022-10-09T03:48:05.795Z,943.1
2022-10-09T03:49:06.108Z,943.11
2022-10-09T03:50:06.421Z,943.12
2022-10-09T03:51:07.195Z,943.14
2022-10-09T03:52:07.836Z,943.1
2022-10-09T03:53:08.172Z,943.06
2022-10-09T03:54:08.737Z,943.07
2022-10-09T03:55:08.930Z,943.09
2022-10-09T03:56:09.270Z,943.05
2022-10-09T03:57:10.203Z,943.04
2022-10-09T03:58:10.416Z,943.03
2022-10-09T03:59:11.328Z,943.03
2022-10-09T04:00:11.972Z,943.05
2022-10-09T04:01:12.238Z,943.06
2022-10-09T04:02:12.906Z,943.08
2022-10-09T04:03:13.459Z,943.05
2022-10-09T04:04:14.103Z,943.08
2022-10-09T04:05:14.992Z,943.13
2022-10-09T04:06:15.605Z,943.06
2022-10-09T04:07:15.714Z,943.08
2022-10-09T04:08:15.901Z,943.06
2022-10-09T04:09:16.305Z,943.06
2022-10-09T04:10:17.242Z,943.02
2022-10-09T04:11:18.273Z,943.05
2022-10-09T04:12:19.180Z,943.04
2022-10-09T04:13:19.382Z,943.05
2022-10-09T04:14:19.718Z,942.99
2022-10-09T04:15:20.635Z,942.98
2022-10-09T04:16:21.041Z,942.96
2022-10-09T04:17:21.461Z,942.96
2022-10-09T04:18:22.389Z,942.98
2022-10-09T04:19:23.306Z,942.95
2022-10-09T04:20:23.617Z,942.95
2022-10-09T04:21:23.885Z,942.93
2022-10-09T04:22:24.523Z,942.92
2022-10-09T04:23:25.431Z,942.94
2022-10-09T04:24:26.332Z,942.9
2022-10-09T04:25:27.245Z,942.89
2022-10-09T04:26:27.908Z,942.9
2022-10-09T04:27:28.080Z,942.93
2022-10-09T04:28:29.091Z,942.91
2022-10-09T04:29:29.509Z,942.9
2022-10-09T04:30:29.834Z,942.93
2022-10-09T04:31:30.148Z,942.94
2022-10-09T04:32:31.155Z,943
2022-10-09T04:33:31.442Z,942.96
2022-10-09T04:34:31.759Z,942.96
2022-10-09T04:35:32.692Z,942.97
2022-10-09T04:36:33.632Z,942.94
2022-10-09T04:37:33.818Z,942.89
2022-10-09T04:38:34.156Z,942.92
2022-10-09T04:39:35.073Z,942.89
2022-10-09T04:40:35.688Z,942.91
2022-10-09T04:41:38.396Z,942.89
2022-10-09T04:42:36.474Z,942.86
2022-10-09T04:43:36.843Z,942.89
2022-10-09T04:44:37.042Z,942.85
2022-10-09T04:45:38.022Z,942.82
2022-10-09T04:46:38.256Z,942.81
2022-10-09T04:47:38.886Z,942.81
2022-10-09T04:48:39.121Z,942.78
2022-10-09T04:49:40.005Z,942.77
2022-10-09T04:50:40.642Z,942.75
2022-10-09T04:51:40.940Z,942.77
2022-10-09T04:52:41.849Z,942.75
2022-10-09T04:53:42.608Z,942.74
2022-10-09T04:54:43.364Z,942.74
2022-10-09T04:55:44.257Z,942.71
2022-10-09T04:56:45.345Z,942.73
2022-10-09T04:57:45.821Z,942.71
2022-10-09T04:58:46.007Z,942.66
2022-10-09T04:59:46.215Z,942.67
2022-10-09T05:00:47.172Z,942.68
2022-10-09T05:01:48.280Z,942.61
2022-10-09T05:02:48.596Z,942.64
2022-10-09T05:03:49.101Z,942.63
2022-10-09T05:04:49.733Z,942.63
2022-10-09T05:05:49.924Z,942.61
2022-10-09T05:06:50.261Z,942.6
2022-10-09T05:07:50.853Z,942.58
2022-10-09T05:08:51.771Z,942.56
2022-10-09T05:09:52.700Z,942.57
2022-10-09T05:10:52.912Z,942.6
2022-10-09T05:11:53.993Z,942.56
2022-10-09T05:12:54.172Z,942.6
2022-10-09T05:13:54.513Z,942.57
2022-10-09T05:14:55.550Z,942.54
2022-10-09T05:15:56.583Z,942.59
2022-10-09T05:17:12.801Z,942.55
2022-10-09T05:17:57.409Z,942.57
2022-10-09T05:18:58.344Z,942.56
2022-10-09T05:19:58.956Z,942.57
2022-10-09T05:20:59.597Z,942.52
2022-10-09T05:22:00.585Z,942.55
2022-10-09T05:23:01.516Z,942.57
2022-10-09T05:24:02.112Z,942.54
2022-10-09T05:25:02.211Z,942.58
2022-10-09T05:26:03.102Z,942.55
2022-10-09T05:27:03.335Z,942.55
2022-10-09T05:28:03.545Z,942.55
2022-10-09T05:29:03.704Z,942.55
2022-10-09T05:30:03.921Z,942.52
2022-10-09T05:31:04.961Z,942.53
2022-10-09T05:32:05.231Z,942.57
2022-10-09T05:33:05.297Z,942.58
2022-10-09T05:34:06.213Z,942.53
2022-10-09T05:35:06.855Z,942.51
2022-10-09T05:36:07.054Z,942.52
2022-10-09T05:37:07.970Z,942.49
2022-10-09T05:38:08.880Z,942.48
2022-10-09T05:39:09.199Z,942.49
2022-10-09T05:40:09.419Z,942.48
2022-10-09T05:41:10.385Z,942.5
2022-10-09T05:42:10.827Z,942.54
2022-10-09T05:43:11.000Z,942.55
2022-10-09T05:44:11.894Z,942.58
2022-10-09T05:45:12.516Z,942.58
2022-10-09T05:46:13.213Z,942.58
2022-10-09T05:47:13.551Z,942.54
2022-10-09T05:48:14.471Z,942.53
2022-10-09T05:49:15.096Z,942.5
2022-10-09T05:50:15.286Z,942.48
2022-10-09T05:51:15.924Z,942.46
2022-10-09T05:52:16.638Z,942.47
2022-10-09T05:53:16.819Z,942.5
2022-10-09T05:54:17.150Z,942.51
2022-10-09T05:55:18.141Z,942.52
2022-10-09T05:56:18.343Z,942.53
2022-10-09T05:57:18.546Z,942.5
2022-10-09T05:58:18.737Z,942.49
2022-10-09T05:59:19.385Z,942.48
2022-10-09T06:00:19.563Z,942.49
2022-10-09T06:01:20.501Z,942.5
2022-10-09T06:02:20.719Z,942.51
2022-10-09T06:03:21.478Z,942.52
2022-10-09T06:04:21.679Z,942.5
2022-10-09T06:05:21.797Z,942.5
2022-10-09T06:06:22.432Z,942.52
2022-10-09T06:07:22.638Z,942.54
2022-10-09T06:08:23.254Z,942.5
2022-10-09T06:09:23.617Z,942.49
2022-10-09T06:10:23.873Z,942.57
2022-10-09T06:11:24.051Z,942.56
2022-10-09T06:12:24.812Z,942.53
2022-10-09T06:13:25.436Z,942.54
2022-10-09T06:14:26.327Z,942.53
2022-10-09T06:15:27.238Z,942.52
2022-10-09T06:16:27.925Z,942.52
2022-10-09T06:17:28.328Z,942.55
2022-10-09T06:18:28.949Z,942.56
2022-10-09T06:19:29.928Z,942.54
2022-10-09T06:20:30.837Z,942.55
2022-10-09T06:21:31.769Z,942.54
2022-10-09T06:22:32.743Z,942.55
2022-10-09T06:23:33.160Z,942.56
2022-10-09T06:24:34.074Z,942.63
2022-10-09T06:25:34.295Z,942.6
2022-10-09T06:26:35.224Z,942.63
2022-10-09T06:27:35.738Z,942.62
2022-10-09T06:28:35.975Z,942.62
2022-10-09T06:29:36.191Z,942.59
2022-10-09T06:30:38.811Z,942.59
2022-10-09T06:31:36.854Z,942.57
2022-10-09T06:32:37.370Z,942.6
2022-10-09T06:33:37.574Z,942.6
2022-10-09T06:34:38.478Z,942.6
2022-10-09T06:35:38.794Z,942.6
2022-10-09T06:36:38.911Z,942.59
2022-10-09T06:37:39.828Z,942.61
2022-10-09T06:38:40.033Z,942.61
2022-10-09T06:39:40.945Z,942.63
2022-10-09T06:40:41.218Z,942.64
2022-10-09T06:41:41.843Z,942.63
2022-10-09T06:42:42.160Z,942.7
2022-10-09T06:43:43.114Z,942.68
2022-10-09T06:44:44.032Z,942.66
2022-10-09T06:45:44.544Z,942.68
2022-10-09T06:46:44.993Z,942.7
2022-10-09T06:47:45.649Z,942.66
2022-10-09T06:48:46.139Z,942.65
2022-10-09T06:49:46.767Z,942.69
2022-10-09T06:50:47.108Z,942.67
2022-10-09T06:51:48.020Z,942.68
2022-10-09T06:52:48.873Z,942.73
2022-10-09T06:53:48.947Z,942.72
2022-10-09T06:54:49.555Z,942.73
2022-10-09T06:55:49.798Z,942.75
2022-10-09T06:56:49.995Z,942.78
2022-10-09T06:57:50.234Z,942.75
2022-10-09T06:58:51.156Z,942.79
2022-10-09T06:59:51.768Z,942.79
2022-10-09T07:00:52.782Z,942.82
2022-10-09T07:01:53.191Z,942.78
2022-10-09T07:02:54.499Z,942.81
2022-10-09T07:03:54.650Z,942.81
2022-10-09T07:04:54.855Z,942.83
2022-10-09T07:05:55.471Z,942.81
2022-10-09T07:06:55.822Z,942.84
2022-10-09T07:07:56.733Z,942.82
2022-10-09T07:08:57.655Z,942.8
2022-10-09T07:09:58.582Z,942.78
2022-10-09T07:10:59.102Z,942.79
2022-10-09T07:11:59.723Z,942.79
2022-10-09T07:13:00.643Z,942.8
2022-10-09T07:14:01.557Z,942.81
2022-10-09T07:15:02.191Z,942.86
2022-10-09T07:16:04.747Z,942.84
2022-10-09T07:17:03.249Z,942.88
2022-10-09T07:18:03.447Z,942.87
2022-10-09T07:19:04.086Z,942.86
2022-10-09T07:20:04.321Z,942.87
2022-10-09T07:21:04.806Z,942.85
2022-10-09T07:22:05.124Z,942.87
2022-10-09T07:23:05.993Z,942.86
2022-10-09T07:24:06.907Z,942.87
2022-10-09T07:25:07.257Z,942.87
2022-10-09T07:26:07.498Z,942.88
2022-10-09T07:27:07.733Z,942.93
2022-10-09T07:28:08.715Z,942.89
2022-10-09T07:29:08.900Z,942.93
2022-10-09T07:30:09.816Z,942.89
2022-10-09T07:31:10.536Z,942.87
2022-10-09T07:32:10.852Z,942.87
2022-10-09T07:33:11.615Z,942.87
2022-10-09T07:34:12.235Z,942.87
2022-10-09T07:35:12.558Z,942.85
2022-10-09T07:36:12.779Z,942.82
2022-10-09T07:37:13.694Z,942.86
2022-10-09T07:38:14.589Z,942.87
2022-10-09T07:39:14.800Z,942.8
2022-10-09T07:40:14.992Z,942.79
2022-10-09T07:41:15.090Z,942.82
2022-10-09T07:42:16.005Z,942.78
2022-10-09T07:43:16.467Z,942.75
2022-10-09T07:44:16.652Z,942.76
2022-10-09T07:45:17.269Z,942.73
2022-10-09T07:46:17.534Z,942.72
2022-10-09T07:47:18.177Z,942.73
2022-10-09T07:48:19.208Z,942.74
2022-10-09T07:49:19.398Z,942.73
2022-10-09T07:50:19.598Z,942.75
2022-10-09T07:51:20.457Z,942.73
2022-10-09T07:52:21.377Z,942.72
2022-10-09T07:53:22.443Z,942.69
2022-10-09T07:54:23.191Z,942.71
2022-10-09T07:55:24.131Z,942.66
2022-10-09T07:56:25.071Z,942.68
2022-10-09T07:57:26.005Z,942.69
2022-10-09T07:58:26.321Z,942.67
2022-10-09T07:59:26.520Z,942.66
2022-10-09T08:00:26.710Z,942.69
2022-10-09T08:01:27.053Z,942.69
2022-10-09T08:02:27.835Z,942.71
2022-10-09T08:03:28.466Z,942.69
2022-10-09T08:04:29.079Z,942.69
2022-10-09T08:05:29.576Z,942.68
2022-10-09T08:06:30.497Z,942.69
2022-10-09T08:07:34.759Z,942.69
2022-10-09T08:08:32.112Z,942.69
2022-10-09T08:09:32.725Z,942.69
2022-10-09T08:10:32.938Z,942.63
2022-10-09T08:11:33.694Z,942.67
2022-10-09T08:12:34.185Z,942.65
2022-10-09T08:13:34.628Z,942.66
2022-10-09T08:14:34.834Z,942.67
2022-10-09T08:15:35.801Z,942.65
2022-10-09T08:16:36.076Z,942.64
2022-10-09T08:17:36.696Z,942.68
2022-10-09T08:18:37.624Z,942.67
2022-10-09T08:19:38.251Z,942.64
2022-10-09T08:20:38.453Z,942.68
2022-10-09T08:21:39.368Z,942.69
2022-10-09T08:22:39.708Z,942.67
2022-10-09T08:23:40.493Z,942.7
2022-10-09T08:24:40.689Z,942.69
2022-10-09T08:25:41.594Z,942.71
2022-10-09T08:26:41.826Z,942.72
2022-10-09T08:27:42.723Z,942.73
2022-10-09T08:28:43.727Z,942.73
2022-10-09T08:29:44.507Z,942.72
2022-10-09T08:30:44.751Z,942.71
2022-10-09T08:31:45.083Z,942.7
2022-10-09T08:32:46.092Z,942.74
2022-10-09T08:33:45.955Z,942.75
2022-10-09T08:34:46.154Z,942.74
2022-10-09T08:35:46.791Z,942.69
2022-10-09T08:36:47.286Z,942.71
2022-10-09T08:37:47.471Z,942.7
2022-10-09T08:38:48.408Z,942.72
2022-10-09T08:39:48.477Z,942.66
2022-10-09T08:40:48.833Z,942.67
2022-10-09T08:41:49.704Z,942.64
2022-10-09T08:42:51.119Z,942.63
2022-10-09T08:43:51.449Z,942.65
2022-10-09T08:44:52.338Z,942.68
2022-10-09T08:45:52.740Z,942.67
2022-10-09T08:46:53.636Z,942.66
2022-10-09T08:47:54.061Z,942.65
2022-10-09T08:48:54.970Z,942.65
2022-10-09T08:49:55.581Z,942.65
2022-10-09T08:50:55.815Z,942.65
2022-10-09T08:51:56.734Z,942.65
2022-10-09T08:52:57.142Z,942.67
2022-10-09T08:53:57.682Z,942.6
2022-10-09T08:54:58.622Z,942.64
2022-10-09T08:55:59.537Z,942.69
2022-10-09T08:57:00.482Z,942.68
2022-10-09T08:58:00.800Z,942.67
2022-10-09T08:59:01.737Z,942.71
2022-10-09T09:00:02.627Z,942.67
2022-10-09T09:01:02.838Z,942.66
2022-10-09T09:02:03.945Z,942.64
2022-10-09T09:03:04.532Z,942.64
2022-10-09T09:04:05.147Z,942.67
2022-10-09T09:05:05.361Z,942.67
2022-10-09T09:06:05.569Z,942.65
2022-10-09T09:07:05.755Z,942.64
2022-10-09T09:08:05.948Z,942.63
2022-10-09T09:09:06.856Z,942.63
2022-10-09T09:10:07.470Z,942.65
2022-10-09T09:11:07.812Z,942.61
2022-10-09T09:12:08.368Z,942.6
2022-10-09T09:13:09.013Z,942.61
2022-10-09T09:14:09.632Z,942.61
2022-10-09T09:15:10.562Z,942.6
2022-10-09T09:16:10.943Z,942.62
2022-10-09T09:17:11.027Z,942.64
2022-10-09T09:18:11.922Z,942.61
2022-10-09T09:19:12.847Z,942.58
2022-10-09T09:20:13.044Z,942.62
2022-10-09T09:21:13.549Z,942.54
2022-10-09T09:22:14.233Z,942.58
2022-10-09T09:23:14.420Z,942.56
2022-10-09T09:24:15.147Z,942.54
2022-10-09T09:25:16.086Z,942.52
2022-10-09T09:26:16.982Z,942.51
2022-10-09T09:27:17.200Z,942.5
2022-10-09T09:28:17.440Z,942.53
2022-10-09T09:29:17.712Z,942.5
2022-10-09T09:30:18.636Z,942.5
2022-10-09T09:31:19.610Z,942.51
2022-10-09T09:32:19.736Z,942.51
2022-10-09T09:33:19.929Z,942.52
2022-10-09T09:34:20.297Z,942.51
2022-10-09T09:35:21.230Z,942.48
2022-10-09T09:36:21.433Z,942.49
2022-10-09T09:37:21.651Z,942.52
2022-10-09T09:38:21.848Z,942.48
2022-10-09T09:40:58.021Z,942.46
2022-10-09T09:41:58.214Z,942.45
2022-10-09T09:43:01.759Z,942.5
2022-10-09T09:43:59.006Z,942.45
2022-10-09T09:45:00.045Z,942.44
2022-10-09T09:46:00.945Z,942.44
2022-10-09T09:47:01.140Z,942.44
2022-10-09T09:48:01.360Z,942.4
2022-10-09T09:49:04.776Z,942.4
2022-10-09T09:50:02.987Z,942.4
2022-10-09T09:51:29.695Z,942.37
2022-10-09T09:52:29.862Z,942.36
2022-10-09T09:53:30.782Z,942.34
2022-10-09T09:54:31.701Z,942.38
2022-10-09T09:55:32.434Z,942.33
2022-10-09T09:56:43.107Z,942.33
2022-10-09T09:57:33.786Z,942.33
2022-10-09T09:58:34.720Z,942.34
2022-10-09T09:59:35.376Z,942.33
2022-10-09T10:00:35.708Z,942.38
2022-10-09T10:01:36.690Z,942.33
2022-10-09T10:02:37.208Z,942.3
2022-10-09T10:03:37.473Z,942.3
2022-10-09T10:04:42.515Z,942.31
2022-10-09T10:05:38.646Z,942.3
2022-10-09T10:06:38.834Z,942.28
2022-10-09T10:07:39.772Z,942.32
2022-10-09T10:08:40.861Z,942.31
2022-10-09T10:09:41.055Z,942.3
2022-10-09T10:10:41.402Z,942.28
2022-10-09T10:11:42.298Z,942.26
2022-10-09T10:12:42.915Z,942.25
2022-10-09T10:13:43.841Z,942.2
2022-10-09T10:14:44.759Z,942.19
2022-10-09T10:15:45.837Z,942.18
2022-10-09T10:16:46.058Z,942.14
2022-10-09T10:17:46.977Z,942.16
2022-10-09T10:18:47.596Z,942.14
2022-10-09T10:19:48.373Z,942.12
2022-10-09T10:20:48.581Z,942.1
2022-10-09T10:21:49.175Z,942.12
2022-10-09T10:22:49.585Z,942.09
2022-10-09T10:23:49.660Z,942.1
2022-10-09T10:24:50.139Z,942.11
2022-10-09T10:25:50.854Z,942.09
2022-10-09T10:26:51.767Z,942.09
2022-10-09T10:27:52.499Z,942.05
2022-10-09T10:28:52.836Z,942.03
2022-10-09T10:29:53.181Z,942
2022-10-09T10:30:53.419Z,942
2022-10-09T10:31:53.797Z,941.99
2022-10-09T10:32:54.433Z,942.01
2022-10-09T10:33:55.350Z,941.98
2022-10-09T10:34:56.280Z,942.01
2022-10-09T10:35:57.314Z,942
2022-10-09T10:37:01.039Z,942.01
2022-10-09T10:37:58.870Z,941.97
2022-10-09T10:38:59.213Z,942
2022-10-09T10:39:59.405Z,942.01
2022-10-09T10:41:00.045Z,941.96
2022-10-09T10:42:00.433Z,941.98
2022-10-09T10:43:01.068Z,941.93
2022-10-09T10:44:01.308Z,941.91
2022-10-09T10:45:01.508Z,941.93
2022-10-09T10:46:01.669Z,941.88
2022-10-09T10:47:02.330Z,941.91
2022-10-09T10:48:02.520Z,941.89
2022-10-09T10:49:03.444Z,941.89
2022-10-09T10:50:04.088Z,941.88
2022-10-09T10:51:04.299Z,941.9
2022-10-09T10:52:05.193Z,941.83
2022-10-09T10:53:05.399Z,941.86
2022-10-09T10:54:05.710Z,941.87
2022-10-09T10:55:06.600Z,941.9
2022-10-09T10:56:07.106Z,941.86
2022-10-09T10:57:08.026Z,941.83
2022-10-09T10:58:08.986Z,941.89
2022-10-09T10:59:09.321Z,941.9
2022-10-09T11:00:10.262Z,941.91
2022-10-09T11:01:10.660Z,941.87
2022-10-09T11:02:11.257Z,941.82
2022-10-09T11:03:12.221Z,941.85
2022-10-09T11:04:13.348Z,941.84
2022-10-09T11:05:13.545Z,941.89
2022-10-09T11:06:14.289Z,941.9
2022-10-09T11:07:15.207Z,941.89
2022-10-09T11:08:16.126Z,941.86
2022-10-09T11:09:17.043Z,941.86
2022-10-09T11:10:17.954Z,941.85
2022-10-09T11:11:18.551Z,941.89
2022-10-09T11:12:24.805Z,941.91
2022-10-09T11:13:19.503Z,941.87
2022-10-09T11:14:20.451Z,941.91
2022-10-09T11:15:20.498Z,941.84
2022-10-09T11:16:20.704Z,941.8
2022-10-09T11:17:21.221Z,941.77
2022-10-09T11:18:22.139Z,941.78
2022-10-09T11:19:22.485Z,941.8
2022-10-09T11:20:23.440Z,941.85
2022-10-09T11:21:23.942Z,941.87
2022-10-09T11:22:24.808Z,941.86
2022-10-09T11:23:25.344Z,941.86
2022-10-09T11:24:25.682Z,941.82
2022-10-09T11:25:26.602Z,941.81
2022-10-09T11:26:27.041Z,941.77
2022-10-09T11:27:27.356Z,941.78
2022-10-09T11:28:28.028Z,941.84
2022-10-09T11:29:28.606Z,941.8
2022-10-09T11:30:29.508Z,941.82
2022-10-09T11:31:29.790Z,941.73
2022-10-09T11:32:30.842Z,941.71
2022-10-09T11:33:31.438Z,941.72
2022-10-09T11:34:31.659Z,941.71
2022-10-09T11:35:32.586Z,941.67
2022-10-09T11:36:32.909Z,941.7
2022-10-09T11:37:33.253Z,941.69
2022-10-09T11:38:34.250Z,941.65
2022-10-09T11:39:34.912Z,941.64
2022-10-09T11:40:35.106Z,941.63
2022-10-09T11:41:35.327Z,941.59
2022-10-09T11:42:35.518Z,941.64
2022-10-09T11:43:36.137Z,941.7
2022-10-09T11:44:37.192Z,941.72
2022-10-09T11:45:38.219Z,941.71
2022-10-09T11:46:39.280Z,941.69
2022-10-09T11:47:39.815Z,941.69
2022-10-09T11:48:39.987Z,941.64
2022-10-09T11:49:40.898Z,941.66
2022-10-09T11:50:41.819Z,941.63
2022-10-09T11:51:42.478Z,941.64
2022-10-09T11:52:43.388Z,941.63
2022-10-09T11:53:44.296Z,941.62
2022-10-09T11:54:44.515Z,941.64
2022-10-09T11:55:44.734Z,941.6
2022-10-09T11:56:45.380Z,941.59
2022-10-09T11:57:45.795Z,941.62
2022-10-09T11:58:46.842Z,941.61
2022-10-09T11:59:47.061Z,941.61
2022-10-09T12:00:47.401Z,941.6
2022-10-09T12:01:47.597Z,941.58
2022-10-09T12:02:47.889Z,941.6
2022-10-09T12:03:48.816Z,941.61
2022-10-09T12:04:54.702Z,941.62
2022-10-09T12:05:50.089Z,941.62
2022-10-09T12:06:51.099Z,941.63
2022-10-09T12:07:51.735Z,941.61
2022-10-09T12:08:52.071Z,941.62
2022-10-09T12:09:52.977Z,941.61
2022-10-09T12:10:53.920Z,941.62
2022-10-09T12:11:54.234Z,941.59
2022-10-09T12:12:54.856Z,941.53
2022-10-09T12:13:55.793Z,941.49
2022-10-09T12:14:56.787Z,941.52
2022-10-09T12:15:56.982Z,941.48
2022-10-09T12:16:58.079Z,941.46
2022-10-09T12:17:58.107Z,941.44
2022-10-09T12:18:59.026Z,941.44
2022-10-09T12:20:01.146Z,941.48
2022-10-09T12:21:00.239Z,941.47
2022-10-09T12:22:01.193Z,941.45
2022-10-09T12:23:24.952Z,941.42
2022-10-09T12:24:02.552Z,941.42
2022-10-09T12:25:02.745Z,941.38
2022-10-09T12:26:02.935Z,941.37
2022-10-09T12:27:03.395Z,941.34
2022-10-09T12:28:04.360Z,941.31
2022-10-09T12:29:04.528Z,941.34
2022-10-09T12:30:05.485Z,941.32
2022-10-09T12:31:06.123Z,941.3
2022-10-09T12:32:06.593Z,941.33
2022-10-09T12:33:06.797Z,941.31
2022-10-09T12:34:07.717Z,941.28
2022-10-09T12:35:08.059Z,941.24
2022-10-09T12:36:09.110Z,941.24
2022-10-09T12:37:09.597Z,941.22
2022-10-09T12:38:10.495Z,941.24
2022-10-09T12:39:11.141Z,941.22
2022-10-09T12:40:11.341Z,941.19
2022-10-09T12:41:11.941Z,941.15